Time;durP1;ratioP1;P1;durP2;ratioP2;P2;SDS_P1;SDS_P2;PMS_P1;PMS_P2;Temp;Humidity;BMP_temperature;BMP_pressure;BME280_temperature;BME280_humidity;BME280_pressure;Samples;Min_cycle;Max_cycle;Signal;HPM_P1;HPM_P2
2022/03/14 00:00:30;;;;;;;8.60;5.07;;;;;;;0.74;53.97;96097.41;5034485;28;20299;-79
2022/03/14 00:03:02;;;;;;;8.77;6.88;;;;;;;0.77;53.76;96097.34;5034859;28;20293;-79
2022/03/14 00:05:31;;;;;;;10.73;6.30;;;;;;;0.66;53.33;96094.19;5034844;28;20202;-79
2022/03/14 00:08:01;;;;;;;16.33;9.07;;;;;;;0.44;54.15;96096.50;5034720;28;20308;-79
2022/03/14 00:10:29;;;;;;;9.68;6.25;;;;;;;0.41;55.57;96097.44;5034648;28;20245;-78
2022/03/14 00:12:57;;;;;;;8.38;6.55;;;;;;;0.28;56.05;96101.19;5034833;28;20195;-80
2022/03/14 00:15:29;;;;;;;8.70;6.63;;;;;;;0.14;56.16;96104.13;5034682;28;20220;-78
2022/03/14 00:17:56;;;;;;;12.10;7.05;;;;;;;0.17;56.31;96100.63;5034556;28;20199;-78
2022/03/14 00:23:46;;;;;;;10.73;6.97;;;;;;;0.21;57.75;96095.34;5034336;28;20217;-79
2022/03/14 00:26:13;;;;;;;12.38;8.23;;;;;;;0.18;57.70;96107.47;5033882;28;20212;-79
2022/03/14 00:28:43;;;;;;;8.30;6.03;;;;;;;0.20;57.61;96103.13;5034039;28;20210;-78
2022/03/14 00:31:11;;;;;;;11.80;7.82;;;;;;;0.17;57.33;96103.22;5034149;28;20690;-78
2022/03/14 00:33:39;;;;;;;7.18;6.28;;;;;;;0.15;57.60;96099.81;5034549;28;20200;-78
2022/03/14 00:46:21;;;;;;;10.68;7.20;;;;;;;0.20;58.22;96109.13;5032806;28;20261;-78
2022/03/14 00:48:49;;;;;;;9.85;6.05;;;;;;;0.22;58.89;96112.53;5033532;28;20211;-79
2022/03/14 00:51:19;;;;;;;11.25;6.85;;;;;;;0.25;58.74;96114.19;5034315;28;20563;-79
2022/03/14 00:53:49;;;;;;;13.60;7.30;;;;;;;0.19;58.46;96114.34;5034022;28;20204;-79
2022/03/14 00:56:16;;;;;;;8.45;7.13;;;;;;;0.17;57.85;96113.53;5033438;28;20574;-78
2022/03/14 00:58:43;;;;;;;9.50;6.55;;;;;;;0.14;57.71;96121.34;5033979;28;20254;-78
2022/03/14 01:01:10;;;;;;;12.05;6.68;;;;;;;0.11;57.64;96119.69;5033577;28;20278;-79
2022/03/14 01:03:38;;;;;;;10.80;6.45;;;;;;;0.09;57.93;96120.63;5033941;28;20226;-78
2022/03/14 01:06:05;;;;;;;7.80;5.78;;;;;;;0.06;57.62;96124.13;5033675;28;20196;-79
2022/03/14 01:08:32;;;;;;;13.63;6.75;;;;;;;0.10;57.55;96123.16;5033437;28;20196;-79
2022/03/14 01:10:59;;;;;;;9.40;6.57;;;;;;;0.13;57.54;96123.09;5033115;28;20239;-79
2022/03/14 01:13:26;;;;;;;7.97;6.05;;;;;;;0.19;57.85;96125.50;5034184;28;20283;-79
2022/03/14 01:15:53;;;;;;;8.52;6.80;;;;;;;0.23;58.37;96126.28;5033344;28;20190;-79
2022/03/14 01:38:32;;;;;;;14.23;8.55;;;;;;;0.03;58.95;96133.66;5033217;28;20227;-78
2022/03/14 01:40:58;;;;;;;8.55;6.95;;;;;;;0.00;58.69;96132.00;5033085;28;20196;-79
2022/03/14 01:43:26;;;;;;;9.63;6.93;;;;;;;-0.06;58.07;96138.16;5033109;28;20196;-79
2022/03/14 01:45:55;;;;;;;8.80;6.47;;;;;;;-0.10;58.05;96151.16;5033064;28;20188;-77
2022/03/14 01:48:22;;;;;;;7.65;6.03;;;;;;;-0.18;57.99;96147.91;5033060;28;20702;-79
2022/03/14 01:50:50;;;;;;;7.70;6.18;;;;;;;-0.27;58.58;96148.13;5033204;28;20231;-79
2022/03/14 01:53:18;;;;;;;10.15;7.15;;;;;;;-0.26;58.57;96160.13;5033034;28;20211;-79
2022/03/14 01:55:47;;;;;;;8.77;6.68;;;;;;;-0.41;58.25;96138.94;5036478;28;20207;-78
2022/03/14 01:58:15;;;;;;;7.90;5.63;;;;;;;-0.48;58.46;96147.72;5036146;28;20218;-78
2022/03/14 02:00:43;;;;;;;13.38;6.20;;;;;;;-0.49;59.15;96158.06;5037181;28;20195;-79
2022/03/14 02:03:10;;;;;;;8.25;5.72;;;;;;;-0.60;58.68;96160.00;5037184;28;20196;-79
2022/03/14 02:05:37;;;;;;;9.50;5.75;;;;;;;-0.56;59.29;96167.66;5037243;28;20192;-78
2022/03/14 02:08:05;;;;;;;11.70;6.43;;;;;;;-0.52;59.31;96168.44;5036657;28;20291;-78
2022/03/14 02:10:34;;;;;;;11.10;7.35;;;;;;;-0.49;59.40;96169.22;5037010;28;20243;-78
2022/03/14 02:13:06;;;;;;;11.93;8.30;;;;;;;-0.45;58.50;96170.00;5036674;28;20207;-79
2022/03/14 02:15:34;;;;;;;10.50;7.70;;;;;;;-0.50;58.46;96169.25;5037003;28;20227;-79
2022/03/14 02:18:02;;;;;;;15.90;7.78;;;;;;;-0.45;59.19;96185.47;5018548;28;20200;-77
2022/03/14 02:20:31;;;;;;;16.63;7.55;;;;;;;-0.46;58.92;96184.63;5036606;28;20192;-79
2022/03/14 02:22:58;;;;;;;15.75;8.00;;;;;;;-0.49;58.31;96173.53;5018017;28;20192;-79
2022/03/14 02:25:25;;;;;;;16.88;7.53;;;;;;;-0.44;58.55;96188.00;5036845;28;20647;-78
2022/03/14 02:27:52;;;;;;;13.50;8.65;;;;;;;-0.45;58.68;96185.47;5036459;28;20188;-79
2022/03/14 02:30:19;;;;;;;10.40;7.00;;;;;;;-0.45;58.50;96190.63;5036548;28;20232;-77
2022/03/14 02:32:51;;;;;;;13.10;7.32;;;;;;;-0.47;58.81;96194.97;5036380;28;20250;-79
2022/03/14 02:35:18;;;;;;;9.63;6.82;;;;;;;-0.51;58.98;96196.75;5018073;28;20295;-78
2022/03/14 02:37:47;;;;;;;12.93;6.90;;;;;;;-0.52;58.72;96194.22;5017683;28;20289;-78
2022/03/14 02:40:14;;;;;;;10.75;6.82;;;;;;;-0.52;58.97;96205.38;4999744;28;20204;-78
2022/03/14 02:42:41;;;;;;;10.88;6.72;;;;;;;-0.58;59.46;96202.03;5034720;28;20651;-79
2022/03/14 02:45:09;;;;;;;9.02;6.70;;;;;;;-0.60;59.39;96196.06;5034970;28;20200;-79
2022/03/14 02:47:36;;;;;;;9.88;6.85;;;;;;;-0.64;59.89;96203.88;4999736;28;20197;-79
2022/03/14 02:50:03;;;;;;;11.80;7.00;;;;;;;-0.68;59.77;96217.72;5034401;28;20206;-78
2022/03/14 02:52:31;;;;;;;9.38;7.30;;;;;;;-0.68;59.88;96209.13;5034705;28;20203;-78
2022/03/14 02:54:59;;;;;;;8.93;6.80;;;;;;;-0.70;60.40;96211.72;5036065;28;20289;-78
2022/03/14 02:57:28;;;;;;;11.48;7.78;;;;;;;-0.73;60.81;96214.38;5035614;28;20242;-78
2022/03/14 02:59:57;;;;;;;10.43;7.65;;;;;;;-0.78;60.87;96213.63;5035862;28;20203;-78
2022/03/14 03:02:25;;;;;;;8.85;6.63;;;;;;;-0.81;60.92;96212.84;5035872;28;20211;-79
2022/03/14 03:04:52;;;;;;;9.38;7.80;;;;;;;-0.80;61.14;96217.97;5035236;28;20194;-79
2022/03/14 03:07:19;;;;;;;13.95;8.35;;;;;;;-0.78;61.22;96225.66;5035400;28;20224;-78
2022/03/14 03:09:47;;;;;;;13.30;9.13;;;;;;;-0.75;60.98;96226.44;5034702;28;20433;-79
2022/03/14 03:12:18;;;;;;;14.13;9.45;;;;;;;-0.66;60.58;96227.97;5035094;28;20242;-78
2022/03/14 03:14:45;;;;;;;18.75;9.77;;;;;;;-0.68;60.49;96225.44;5035543;28;20200;-78
2022/03/14 03:17:12;;;;;;;17.88;9.63;;;;;;;-0.64;59.91;96231.38;5000805;28;20207;-77
2022/03/14 03:19:39;;;;;;;11.32;6.65;;;;;;;-0.66;59.88;96233.13;5035728;28;20192;-78
2022/03/14 03:22:06;;;;;;;11.95;8.18;;;;;;;-0.69;60.19;96236.63;5035520;28;20306;-79
2022/03/14 03:24:33;;;;;;;11.27;7.20;;;;;;;-0.70;59.95;96236.66;5035576;28;20188;-78
2022/03/14 03:27:00;;;;;;;10.90;7.57;;;;;;;-0.77;60.36;96235.94;5035093;28;20903;-79
2022/03/14 03:29:28;;;;;;;12.40;8.10;;;;;;;-0.86;61.07;96235.28;5035356;28;20199;-79
2022/03/14 03:31:55;;;;;;;10.38;6.63;;;;;;;-0.94;61.28;96232.81;5035446;28;20591;-79
2022/03/14 03:34:22;;;;;;;13.25;7.68;;;;;;;-1.01;61.77;96237.22;5035552;28;20572;-79
2022/03/14 03:36:58;;;;;;;12.20;8.32;;;;;;;-0.97;62.09;96245.75;5035743;28;20230;-79
2022/03/14 03:39:25;;;;;;;10.02;8.00;;;;;;;-1.02;62.09;96252.72;5035698;28;20233;-79
2022/03/14 03:41:52;;;;;;;20.00;9.50;;;;;;;-1.04;62.35;96246.75;5000741;28;20196;-76
2022/03/14 03:44:19;;;;;;;13.02;8.15;;;;;;;-1.13;62.62;96246.91;5035507;28;20203;-79
2022/03/14 03:46:47;;;;;;;10.88;6.03;;;;;;;-1.22;63.80;96252.22;5035695;28;20196;-78
2022/03/14 03:49:14;;;;;;;13.48;7.65;;;;;;;-1.33;63.43;96257.56;5035424;28;20192;-77
2022/03/14 03:51:41;;;;;;;11.95;7.60;;;;;;;-1.35;63.52;96269.59;5035561;28;20218;-77
2022/03/14 03:54:09;;;;;;;11.40;7.75;;;;;;;-1.40;63.94;96269.69;5035035;28;20204;-78
2022/03/14 03:56:38;;;;;;;11.55;7.85;;;;;;;-1.45;64.43;96276.59;5035411;28;20192;-79
2022/03/14 03:59:05;;;;;;;14.63;7.93;;;;;;;-1.45;64.65;96265.44;5000684;28;20209;-79
2022/03/14 04:01:32;;;;;;;9.77;7.35;;;;;;;-1.46;65.20;96274.91;5033982;28;20204;-79
2022/03/14 04:04:01;;;;;;;14.02;7.47;;;;;;;-1.51;64.96;96268.97;4999098;28;20210;-79
2022/03/14 04:06:30;;;;;;;12.27;7.53;;;;;;;-1.57;65.05;96267.34;5033739;28;20203;-79
2022/03/14 04:08:58;;;;;;;12.57;7.88;;;;;;;-1.53;64.88;96269.88;5033858;28;20204;-79
2022/03/14 04:11:25;;;;;;;16.80;8.15;;;;;;;-1.56;64.57;96270.78;5033822;28;20235;-79
2022/03/14 04:13:57;;;;;;;15.20;8.20;;;;;;;-1.54;65.07;96281.91;5033644;28;20745;-79
2022/03/14 04:16:26;;;;;;;14.60;8.60;;;;;;;-1.52;64.57;96280.16;5032854;28;20211;-78
2022/03/14 04:18:53;;;;;;;14.02;7.90;;;;;;;-1.48;64.79;96286.09;5034295;28;20564;-78
2022/03/14 04:21:21;;;;;;;11.88;7.70;;;;;;;-1.42;64.10;96283.44;5033587;28;20204;-78
2022/03/14 04:23:48;;;;;;;10.30;7.75;;;;;;;-1.41;64.26;96291.16;5033867;28;20204;-78
2022/03/14 04:26:15;;;;;;;10.63;7.22;;;;;;;-1.29;64.07;96292.66;5033208;28;20298;-79
2022/03/14 04:28:42;;;;;;;11.95;7.78;;;;;;;-1.23;63.90;96292.56;5033434;28;20203;-78
2022/03/14 04:31:10;;;;;;;12.02;7.70;;;;;;;-1.23;63.43;96296.84;4999041;28;20309;-78
2022/03/14 04:33:37;;;;;;;9.25;7.43;;;;;;;-1.23;63.34;96297.72;5033963;28;20518;-78
2022/03/14 04:36:06;;;;;;;16.02;8.20;;;;;;;-1.25;62.99;96299.47;5033849;28;20196;-79
2022/03/14 04:38:34;;;;;;;12.13;7.55;;;;;;;-1.18;62.58;96306.19;5034067;28;20199;-78
2022/03/14 04:41:01;;;;;;;9.75;7.05;;;;;;;-1.15;62.38;96301.03;5033588;28;20196;-79
2022/03/14 04:43:29;;;;;;;12.13;7.03;;;;;;;-1.12;62.13;96310.44;4999050;28;20207;-79
2022/03/14 04:45:56;;;;;;;11.10;7.75;;;;;;;-1.10;61.72;96322.41;5033954;28;20598;-79
2022/03/14 04:48:23;;;;;;;10.20;8.05;;;;;;;-1.06;61.59;96315.47;5033717;28;20206;-77
2022/03/14 04:50:50;;;;;;;12.38;9.52;;;;;;;-1.02;62.31;96327.41;5033953;28;20201;-78
2022/03/14 04:53:17;;;;;;;11.95;8.65;;;;;;;-0.97;62.10;96326.47;5033489;28;20207;-80
2022/03/14 04:55:45;;;;;;;14.98;10.63;;;;;;;-0.91;61.83;96342.69;5034115;28;20199;-78
2022/03/14 04:58:14;;;;;;;20.33;13.82;;;;;;;-1.15;63.57;96349.97;5034004;28;20195;-79
2022/03/14 05:00:41;;;;;;;23.05;13.98;;;;;;;-1.19;63.59;96345.72;5033497;28;20196;-78
2022/03/14 05:03:09;;;;;;;25.45;13.90;;;;;;;-1.35;64.91;96350.25;5033807;28;20287;-79
2022/03/14 05:05:37;;;;;;;26.92;17.33;;;;;;;-1.32;65.15;96362.22;5033754;28;20203;-79
2022/03/14 05:08:04;;;;;;;37.67;19.45;;;;;;;-1.36;65.27;96358.00;5033789;28;20193;-79
2022/03/14 05:10:31;;;;;;;35.22;21.70;;;;;;;-1.30;65.46;96368.22;5033141;28;20686;-78
2022/03/14 05:16:35;;;;;;;34.70;20.25;;;;;;;-1.09;65.12;96367.88;5033348;28;20227;-78
2022/03/14 05:19:02;;;;;;;37.97;19.52;;;;;;;-1.01;64.71;96376.34;5033415;28;20203;-77
2022/03/14 05:21:29;;;;;;;35.70;19.95;;;;;;;-0.89;64.47;96384.72;5033682;28;20192;-79
2022/03/14 05:23:55;;;;;;;24.13;15.43;;;;;;;-0.81;64.20;96386.31;5033453;28;20196;-79
2022/03/14 05:26:22;;;;;;;22.33;13.45;;;;;;;-0.57;63.29;96384.22;5033148;28;20200;-78
2022/03/14 05:28:49;;;;;;;18.60;11.05;;;;;;;-0.17;62.11;96386.91;5019866;28;20207;-79
2022/03/14 05:31:17;;;;;;;12.63;8.63;;;;;;;0.24;59.91;96393.81;5054063;28;20219;-79
2022/03/14 05:33:45;;;;;;;16.40;9.15;;;;;;;0.68;60.18;96394.63;5057639;28;20211;-79
2022/03/14 05:36:12;;;;;;;14.68;7.93;;;;;;;1.58;57.28;96395.06;5057976;28;20209;-78
2022/03/14 05:38:39;;;;;;;11.95;8.63;;;;;;;2.53;53.47;96403.66;5057915;28;20194;-79
2022/03/14 05:41:06;;;;;;;9.45;7.50;;;;;;;3.37;50.48;96399.34;5021772;28;20205;-79
2022/03/14 05:43:36;;;;;;;13.60;8.93;;;;;;;3.99;48.10;96389.44;5055913;28;20211;-78
2022/03/14 05:46:04;;;;;;;12.47;7.20;;;;;;;4.65;46.81;96397.47;5056714;28;20492;-79
2022/03/14 05:48:32;;;;;;;14.73;9.20;;;;;;;5.17;45.19;96393.69;5057063;28;20457;-78
2022/03/14 05:51:02;;;;;;;20.37;10.63;;;;;;;5.46;43.46;96392.53;5057347;28;20800;-79
2022/03/14 05:53:30;;;;;;;12.53;9.40;;;;;;;5.81;43.18;96392.84;5057013;28;20772;-79
2022/03/14 05:55:57;;;;;;;12.83;9.17;;;;;;;6.13;41.56;96394.13;5056402;28;20448;-78
2022/03/14 05:58:24;;;;;;;14.40;9.00;;;;;;;6.31;41.62;96395.06;5038377;28;20448;-78
2022/03/14 06:00:52;;;;;;;14.40;10.37;;;;;;;6.54;41.53;96389.66;5056832;28;20426;-79
2022/03/14 06:03:21;;;;;;;18.20;10.53;;;;;;;6.62;39.63;96394.53;5057202;28;20449;-79
2022/03/14 06:05:48;;;;;;;18.23;8.50;;;;;;;6.72;39.71;96401.03;5056545;28;20445;-78
2022/03/14 06:08:17;;;;;;;16.47;10.87;;;;;;;6.72;40.07;96401.88;5056397;28;20450;-79
2022/03/14 06:10:45;;;;;;;49.17;15.67;;;;;;;6.48;39.49;96401.22;5056361;28;20572;-78
2022/03/14 06:13:12;;;;;;;70.40;27.83;;;;;;;6.50;40.41;96412.44;5056732;28;20476;-78
2022/03/14 06:15:39;;;;;;;24.93;11.90;;;;;;;6.73;39.85;96403.59;5056389;28;20466;-80
2022/03/14 06:18:07;;;;;;;33.77;17.77;;;;;;;6.78;40.09;96411.19;5056733;28;20430;-78
2022/03/14 06:20:34;;;;;;;16.33;11.73;;;;;;;6.94;40.01;96404.38;5056743;28;20426;-79
2022/03/14 06:23:01;;;;;;;14.60;8.10;;;;;;;7.09;39.98;96414.09;5056760;28;20454;-79
2022/03/14 06:25:30;;;;;;;17.33;8.90;;;;;;;7.17;39.81;96408.50;5056590;28;20460;-77
2022/03/14 06:27:56;;;;;;;10.23;7.40;;;;;;;7.28;39.99;96427.13;5056629;28;20437;-77
2022/03/14 06:30:24;;;;;;;12.70;7.40;;;;;;;7.28;39.08;96419.31;5056632;28;20441;-80
2022/03/14 06:32:51;;;;;;;14.20;8.03;;;;;;;7.41;39.60;96428.22;5056471;28;20966;-79
2022/03/14 06:35:20;;;;;;;12.70;8.60;;;;;;;7.69;38.93;96424.28;5021376;28;20971;-80
2022/03/14 06:37:47;;;;;;;44.27;22.03;;;;;;;7.81;47.83;96425.47;5056410;28;20434;-79
2022/03/14 06:40:15;;;;;;;24.87;15.93;;;;;;;7.99;43.36;96420.16;5055359;28;20827;-78
2022/03/14 06:42:49;;;;;;;21.07;11.07;;;;;;;8.03;42.87;96437.38;5056712;28;20430;-78
2022/03/14 06:45:23;;;;;;;22.80;13.30;;;;;;;7.98;38.73;96436.75;5053012;28;20465;-78
2022/03/14 06:47:50;;;;;;;18.50;12.43;;;;;;;7.85;37.92;96440.06;5036396;28;20446;-78
2022/03/14 06:50:17;;;;;;;18.40;11.20;;;;;;;7.93;38.73;96436.16;5036701;28;20504;-78
2022/03/14 06:52:45;;;;;;;44.33;26.37;;;;;;;8.13;38.21;96435.16;5036249;28;20489;-79
2022/03/14 06:55:12;;;;;;;34.33;20.80;;;;;;;7.88;38.17;96443.38;5040961;28;20541;-78
2022/03/14 06:57:39;;;;;;;25.00;16.97;;;;;;;8.03;38.31;96439.13;5055578;28;20491;-79
2022/03/14 07:00:09;;;;;;;29.93;16.80;;;;;;;8.28;38.33;96446.59;5055719;28;20472;-77
2022/03/14 07:02:40;;;;;;;27.10;16.00;;;;;;;8.51;38.11;96448.94;5055924;28;20453;-77
2022/03/14 07:05:13;;;;;;;31.90;16.17;;;;;;;8.45;37.79;96444.00;5036888;28;20519;-78
2022/03/14 07:07:40;;;;;;;24.97;16.13;;;;;;;8.32;38.39;96448.13;5034177;28;20454;-77
2022/03/14 07:10:08;;;;;;;28.20;16.67;;;;;;;8.23;38.68;96453.84;5035588;28;20458;-78
2022/03/14 07:12:39;;;;;;;30.20;17.80;;;;;;;8.21;38.65;96448.69;5035355;28;21052;-77
2022/03/14 07:15:08;;;;;;;35.23;19.60;;;;;;;8.48;38.40;96446.47;5043670;28;20462;-77
2022/03/14 07:17:35;;;;;;;32.40;19.47;;;;;;;8.30;37.12;96455.22;5034882;28;20447;-77
2022/03/14 07:20:02;;;;;;;32.87;18.93;;;;;;;8.18;37.67;96453.22;5034981;28;20514;-77
2022/03/14 07:22:35;;;;;;;27.30;17.70;;;;;;;8.25;38.30;96449.38;5035188;28;20454;-76
2022/03/14 07:25:06;;;;;;;31.90;19.17;;;;;;;8.38;37.48;96455.69;5035650;28;20541;-78
2022/03/14 07:27:33;;;;;;;37.07;19.30;;;;;;;8.46;37.71;96450.09;5035595;28;20454;-78
2022/03/14 07:30:00;;;;;;;29.80;18.80;;;;;;;8.53;37.55;96451.47;5033853;28;20486;-78
2022/03/14 07:32:28;;;;;;;30.80;17.53;;;;;;;8.56;36.97;96461.75;5035576;28;20864;-79
2022/03/14 07:34:57;;;;;;;30.80;16.70;;;;;;;8.69;36.36;96457.59;5035265;28;20453;-76
2022/03/14 07:37:23;;;;;;;29.93;17.33;;;;;;;8.78;36.43;96459.72;5035084;28;21031;-76
2022/03/14 07:39:50;;;;;;;29.13;15.87;;;;;;;8.76;36.26;96463.34;5034702;28;20450;-76
2022/03/14 07:42:17;;;;;;;25.47;16.03;;;;;;;8.87;36.16;96461.84;5035175;28;20454;-77
2022/03/14 07:44:45;;;;;;;38.27;16.40;;;;;;;8.86;35.49;96460.16;5034669;28;20450;-77
2022/03/14 07:47:13;;;;;;;45.20;17.40;;;;;;;8.85;35.38;96457.63;5034706;28;20946;-77
2022/03/14 07:49:42;;;;;;;33.03;16.13;;;;;;;9.02;35.48;96454.97;5034637;28;20450;-76
2022/03/14 07:52:09;;;;;;;23.17;16.50;;;;;;;9.08;36.41;96459.88;5034331;28;20490;-77
2022/03/14 07:54:36;;;;;;;30.10;15.33;;;;;;;9.08;35.43;96461.66;5048831;28;20470;-77
2022/03/14 07:57:03;;;;;;;27.13;16.00;;;;;;;9.12;34.79;96460.53;5053493;28;20453;-78
2022/03/14 07:59:29;;;;;;;28.90;18.70;;;;;;;8.93;36.51;96450.19;5054714;28;20940;-77
2022/03/14 08:01:56;;;;;;;35.63;18.80;;;;;;;9.07;35.45;96452.94;5054436;28;20453;-77
2022/03/14 08:04:24;;;;;;;35.67;20.33;;;;;;;9.03;36.08;96454.03;5019204;28;20920;-77
2022/03/14 08:06:52;;;;;;;32.63;18.97;;;;;;;8.78;36.50;96456.25;5054164;28;20450;-77
2022/03/14 08:09:21;;;;;;;23.73;16.07;;;;;;;8.79;36.73;96455.34;5053943;28;20449;-77
2022/03/14 08:11:48;;;;;;;22.60;15.63;;;;;;;8.90;36.42;96448.59;5019628;28;20821;-77
2022/03/14 08:14:15;;;;;;;28.60;15.50;;;;;;;8.84;37.13;96456.78;5035254;28;20422;-77
2022/03/14 08:16:42;;;;;;;22.17;15.10;;;;;;;8.27;37.17;96456.22;5054272;28;20469;-76
2022/03/14 08:19:09;;;;;;;19.37;13.30;;;;;;;8.23;37.83;96459.06;5054622;28;20452;-77
2022/03/14 08:21:36;;;;;;;20.20;14.00;;;;;;;8.26;37.78;96458.91;5054378;28;20937;-78
2022/03/14 08:24:05;;;;;;;23.63;14.00;;;;;;;8.26;37.56;96457.13;5054269;28;20477;-77
2022/03/14 08:26:33;;;;;;;20.53;13.53;;;;;;;8.19;37.19;96454.91;5054015;28;20921;-77
2022/03/14 08:29:00;;;;;;;20.87;12.17;;;;;;;7.97;38.37;96458.59;5054143;28;20510;-77
2022/03/14 08:31:29;;;;;;;21.30;13.83;;;;;;;7.96;38.54;96466.50;5053711;28;20491;-76
2022/03/14 08:33:56;;;;;;;19.13;12.83;;;;;;;7.86;40.32;96460.91;5053985;28;21055;-75
2022/03/14 08:36:23;;;;;;;16.90;12.60;;;;;;;7.63;39.65;96469.00;5053150;28;20442;-77
2022/03/14 08:38:50;;;;;;;23.57;14.10;;;;;;;7.43;40.40;96462.94;5053509;28;20554;-77
2022/03/14 08:41:18;;;;;;;21.63;14.23;;;;;;;7.68;40.38;96464.41;5053541;28;20442;-76
2022/03/14 08:43:46;;;;;;;19.17;13.40;;;;;;;7.41;41.67;96467.41;5053368;28;20557;-77
2022/03/14 08:46:15;;;;;;;19.03;12.70;;;;;;;7.52;42.69;96458.19;5054583;28;20441;-77
2022/03/14 08:48:41;;;;;;;20.00;13.27;;;;;;;7.58;41.59;96461.38;5055410;28;20512;-77
2022/03/14 08:51:08;;;;;;;20.70;12.97;;;;;;;7.73;40.92;96462.41;5053325;28;20461;-77
2022/03/14 08:53:35;;;;;;;22.63;12.90;;;;;;;7.90;41.15;96467.66;5018452;28;20484;-77
2022/03/14 08:56:02;;;;;;;23.13;13.20;;;;;;;8.21;41.12;96463.53;5053262;28;20446;-77
2022/03/14 08:58:31;;;;;;;25.00;14.10;;;;;;;8.30;38.89;96456.06;5018568;28;20445;-77
2022/03/14 09:00:59;;;;;;;17.37;12.47;;;;;;;8.38;39.50;96459.19;5053278;28;20457;-77
2022/03/14 09:03:26;;;;;;;17.00;11.60;;;;;;;8.30;39.37;96453.44;5053224;28;20540;-77
2022/03/14 09:05:56;;;;;;;20.23;11.43;;;;;;;8.23;38.75;96457.31;5053135;28;20528;-77
2022/03/14 09:08:23;;;;;;;15.63;11.57;;;;;;;8.35;40.06;96450.63;5053415;28;20565;-76
2022/03/14 09:10:50;;;;;;;13.17;10.67;;;;;;;8.42;38.48;96448.56;5053417;28;20489;-78
2022/03/14 09:13:18;;;;;;;15.90;11.70;;;;;;;8.55;38.15;96445.22;5052396;28;21007;-77
2022/03/14 09:15:47;;;;;;;16.00;11.93;;;;;;;8.48;38.58;96445.63;5052232;28;20560;-77
2022/03/14 09:18:14;;;;;;;16.30;11.30;;;;;;;8.55;38.90;96447.00;5053458;28;20529;-76
2022/03/14 09:20:42;;;;;;;15.70;9.07;;;;;;;8.27;36.75;96444.91;5053406;28;20776;-76
2022/03/14 09:23:10;;;;;;;13.03;9.40;;;;;;;8.29;37.09;96441.28;5053027;28;20464;-78
2022/03/14 09:25:37;;;;;;;15.33;9.30;;;;;;;8.57;37.39;96442.53;5052990;28;20921;-77
2022/03/14 09:28:05;;;;;;;16.07;9.30;;;;;;;8.79;37.08;96443.09;5052917;28;20449;-77
2022/03/14 09:30:32;;;;;;;12.60;9.30;;;;;;;7.88;38.99;96442.53;5053265;28;20789;-77
2022/03/14 09:33:00;;;;;;;12.10;8.00;;;;;;;8.02;37.25;96434.84;5052324;28;20899;-77
2022/03/14 09:35:27;;;;;;;9.27;6.23;;;;;;;7.76;35.55;96434.34;5052054;28;20971;-77
2022/03/14 09:37:55;;;;;;;11.17;7.10;;;;;;;7.56;36.01;96447.56;5052290;28;20453;-76
2022/03/14 09:40:23;;;;;;;12.93;7.47;;;;;;;7.74;37.12;96437.97;5052947;28;20529;-78
2022/03/14 09:42:52;;;;;;;9.53;5.13;;;;;;;7.40;34.48;96442.19;5053250;28;20441;-78
2022/03/14 09:45:20;;;;;;;7.17;5.00;;;;;;;7.38;35.15;96448.41;5052954;28;20442;-77
2022/03/14 09:47:49;;;;;;;6.63;5.23;;;;;;;7.66;34.38;96443.56;5053116;28;20453;-78
2022/03/14 09:50:24;;;;;;;6.30;5.20;;;;;;;7.79;35.35;96443.81;5053130;28;20533;-76
2022/03/14 09:52:52;;;;;;;12.10;6.70;;;;;;;7.14;35.23;96440.81;5052909;28;20489;-78
2022/03/14 09:55:19;;;;;;;8.80;6.33;;;;;;;7.58;36.32;96447.47;5052904;28;20655;-76
2022/03/14 09:57:47;;;;;;;11.60;5.83;;;;;;;7.83;36.43;96437.53;5052959;28;20925;-77
2022/03/14 10:00:14;;;;;;;9.50;5.50;;;;;;;8.03;35.26;96453.06;5051824;28;20449;-78
2022/03/14 10:02:42;;;;;;;9.77;6.00;;;;;;;7.66;34.25;96447.94;5017812;28;20457;-79
2022/03/14 10:05:11;;;;;;;11.53;7.27;;;;;;;7.64;35.80;96449.78;5053071;28;20450;-77
2022/03/14 10:07:42;;;;;;;14.33;6.60;;;;;;;7.80;36.21;96442.88;5053168;28;20453;-77
2022/03/14 10:10:10;;;;;;;7.73;5.97;;;;;;;7.49;35.24;96430.47;5052418;28;20913;-79
2022/03/14 10:12:38;;;;;;;7.23;5.73;;;;;;;7.84;36.14;96441.84;5052053;28;20473;-80
2022/03/14 10:15:07;;;;;;;6.97;6.27;;;;;;;8.10;35.92;96424.88;5053198;28;20524;-80
2022/03/14 10:17:35;;;;;;;8.23;6.43;;;;;;;8.03;34.62;96434.75;5056132;28;20461;-79
2022/03/14 10:20:06;;;;;;;10.83;6.30;;;;;;;8.14;35.38;96433.41;5055889;28;20951;-77
2022/03/14 10:22:35;;;;;;;9.53;5.50;;;;;;;7.60;35.64;96448.25;5037478;28;20491;-77
2022/03/14 10:25:09;;;;;;;9.90;5.83;;;;;;;7.42;35.58;96435.13;5056120;28;20532;-80
2022/03/14 10:27:37;;;;;;;7.77;6.07;;;;;;;7.55;35.06;96434.56;5056167;28;20429;-79
2022/03/14 10:30:05;;;;;;;6.50;5.70;;;;;;;7.54;35.68;96432.88;5056220;28;20908;-78
2022/03/14 10:32:33;;;;;;;13.97;6.53;;;;;;;7.69;35.99;96432.97;5055942;28;20457;-80
2022/03/14 10:35:01;;;;;;;11.70;6.73;;;;;;;7.91;36.51;96426.69;5056047;28;20433;-79
2022/03/14 10:37:29;;;;;;;8.17;5.13;;;;;;;7.89;36.56;96429.38;5055967;28;20448;-78
2022/03/14 10:40:01;;;;;;;9.53;7.00;;;;;;;7.63;36.08;96433.28;5056337;28;20449;-80
2022/03/14 10:42:38;;;;;;;7.23;6.30;;;;;;;7.63;36.64;96432.44;5056539;28;20841;-78
2022/03/14 10:45:11;;;;;;;13.03;5.70;;;;;;;7.42;37.17;96432.53;5056068;28;20487;-78
2022/03/14 10:47:44;;;;;;;10.77;6.07;;;;;;;7.46;36.62;96426.22;5056089;28;20458;-78
2022/03/14 10:50:11;;;;;;;6.63;5.97;;;;;;;7.65;36.96;96425.34;5055674;28;20438;-78
2022/03/14 10:52:38;;;;;;;10.85;7.18;;;;;;;7.89;36.62;96418.94;4987654;28;20432;-78
2022/03/14 10:55:13;;;;;;;12.40;6.43;;;;;;;8.08;37.15;96422.28;5055921;28;20210;-79
2022/03/14 10:57:48;;;;;;;8.73;6.80;;;;;;;8.16;35.76;96421.09;5056167;28;20444;-79
2022/03/14 11:00:16;;;;;;;9.53;6.87;;;;;;;7.85;37.15;96416.56;5055316;28;20777;-78
2022/03/14 11:03:03;;;;;;;21.73;8.17;;;;;;;7.85;37.55;96422.63;5055935;28;20468;-79
2022/03/14 11:05:30;;;;;;;11.03;7.30;;;;;;;7.96;38.12;96416.84;5021055;28;20453;-78
2022/03/14 11:07:57;;;;;;;8.97;7.10;;;;;;;8.03;36.66;96416.47;5020667;28;20460;-79
2022/03/14 11:10:38;;;;;;;9.90;6.67;;;;;;;7.45;37.50;96418.47;5055251;28;20438;-80
2022/03/14 11:13:13;;;;;;;13.50;6.93;;;;;;;7.50;37.97;96415.63;5055430;28;20481;-79
2022/03/14 11:15:40;;;;;;;12.60;6.03;;;;;;;7.80;37.46;96419.38;5055502;28;20437;-79
2022/03/14 11:18:08;;;;;;;10.60;6.70;;;;;;;7.72;36.59;96418.91;5055723;28;20454;-80
2022/03/14 11:20:35;;;;;;;9.00;5.60;;;;;;;7.60;37.57;96416.91;5055340;28;20541;-78
2022/03/14 11:23:02;;;;;;;8.23;7.10;;;;;;;7.50;36.64;96415.63;5055746;28;20452;-77
2022/03/14 11:25:29;;;;;;;8.37;6.20;;;;;;;7.63;37.77;96406.31;5054763;28;20921;-78
2022/03/14 11:27:57;;;;;;;8.30;6.00;;;;;;;7.50;36.98;96411.25;5055415;28;20430;-79
2022/03/14 11:30:27;;;;;;;8.27;6.47;;;;;;;7.33;37.08;96416.47;5055288;28;20459;-78
2022/03/14 11:32:57;;;;;;;11.77;7.03;;;;;;;7.37;37.52;96407.56;5055068;28;20485;-77
2022/03/14 11:35:24;;;;;;;9.20;7.20;;;;;;;7.41;38.05;96412.56;5055469;28;20434;-79
2022/03/14 11:37:52;;;;;;;7.80;6.53;;;;;;;7.42;37.32;96411.63;5054889;28;20771;-76
2022/03/14 11:40:19;;;;;;;8.13;6.73;;;;;;;7.65;37.23;96405.31;5055135;28;20441;-78
2022/03/14 11:42:46;;;;;;;14.37;7.50;;;;;;;7.81;37.39;96392.34;5055107;28;21002;-79
2022/03/14 11:45:14;;;;;;;7.97;7.10;;;;;;;7.92;37.56;96392.66;5055596;28;20525;-78
2022/03/14 11:47:43;;;;;;;11.70;8.07;;;;;;;7.98;37.75;96383.63;5020244;28;20438;-79
2022/03/14 11:50:12;;;;;;;9.93;7.37;;;;;;;7.82;37.45;96395.81;5055033;28;20440;-78
2022/03/14 11:52:41;;;;;;;9.90;7.20;;;;;;;7.69;37.56;96379.88;5054327;28;20460;-79
2022/03/14 11:55:18;;;;;;;9.27;7.90;;;;;;;7.69;38.65;96377.25;5054488;28;20482;-78
2022/03/14 11:57:47;;;;;;;9.27;7.50;;;;;;;7.79;37.91;96375.88;5054354;28;20452;-78
2022/03/14 12:00:35;;;;;;;9.50;7.50;;;;;;;7.93;36.90;96377.81;5054634;28;20913;-78
2022/03/14 12:03:06;;;;;;;11.00;6.77;;;;;;;7.61;37.98;96382.03;4993168;28;20549;-78
2022/03/14 12:05:51;;;;;;;8.60;6.50;;;;;;;7.71;38.31;96378.03;4993220;28;20452;-79
2022/03/14 12:09:01;;;;;;;10.30;7.77;;;;;;;7.74;37.62;96368.25;4993426;28;20444;-79
2022/03/14 12:11:46;;;;;;;10.43;7.07;;;;;;;7.77;38.72;96359.44;4992806;28;20520;-81